sensor_id;sensor_type;location;lat;lon;timestamp;pressure;altitude;pressure_sealevel;temperature;humidity
72096;BME280;59968;51.084;16.748;2023-06-14T00:05:31;100257.06;;;12.27;63.29
72096;BME280;59968;51.084;16.748;2023-06-14T00:08:02;100253.18;;;12.25;63.42
72096;BME280;59968;51.084;16.748;2023-06-14T00:10:36;100249.48;;;12.19;63.51
72096;BME280;59968;51.084;16.748;2023-06-14T00:13:09;100251.83;;;12.14;63.55
72096;BME280;59968;51.084;16.748;2023-06-14T00:15:42;100254.23;;;12.09;63.52
72096;BME280;59968;51.084;16.748;2023-06-14T00:18:14;100256.73;;;12.03;63.48
72096;BME280;59968;51.084;16.748;2023-06-14T00:21:04;100256.49;;;11.99;63.46
72096;BME280;59968;51.084;16.748;2023-06-14T00:23:36;100254.17;;;11.91;63.72
72096;BME280;59968;51.084;16.748;2023-06-14T00:26:07;100251.20;;;11.86;63.97
72096;BME280;59968;51.084;16.748;2023-06-14T00:28:41;100248.16;;;11.83;64.38
72096;BME280;59968;51.084;16.748;2023-06-14T00:35:50;100249.23;;;11.76;64.70
72096;BME280;59968;51.084;16.748;2023-06-14T00:38:23;100242.05;;;11.70;64.72
72096;BME280;59968;51.084;16.748;2023-06-14T00:45:35;100249.66;;;11.74;64.74
72096;BME280;59968;51.084;16.748;2023-06-14T00:48:14;100246.86;;;11.73;64.62
72096;BME280;59968;51.084;16.748;2023-06-14T00:50:48;100243.95;;;11.71;64.63
72096;BME280;59968;51.084;16.748;2023-06-14T00:53:40;100247.82;;;11.71;64.79
72096;BME280;59968;51.084;16.748;2023-06-14T00:56:14;100245.84;;;11.68;64.72
72096;BME280;59968;51.084;16.748;2023-06-14T00:58:43;100248.41;;;11.66;64.72
72096;BME280;59968;51.084;16.748;2023-06-14T01:05:40;100253.64;;;11.59;65.36
72096;BME280;59968;51.084;16.748;2023-06-14T01:11:10;100261.50;;;11.52;65.77
72096;BME280;59968;51.084;16.748;2023-06-14T01:13:54;100262.36;;;11.46;65.88
72096;BME280;59968;51.084;16.748;2023-06-14T01:20:40;100269.39;;;11.33;66.24
72096;BME280;59968;51.084;16.748;2023-06-14T01:23:11;100271.77;;;11.29;66.11
72096;BME280;59968;51.084;16.748;2023-06-14T01:30:20;100271.42;;;11.14;65.98
72096;BME280;59968;51.084;16.748;2023-06-14T01:32:49;100273.14;;;11.06;66.03
72096;BME280;59968;51.084;16.748;2023-06-14T01:35:27;100272.92;;;11.00;66.20
72096;BME280;59968;51.084;16.748;2023-06-14T01:38:04;100271.58;;;10.95;66.32
72096;BME280;59968;51.084;16.748;2023-06-14T01:40:36;100271.19;;;10.90;66.69
72096;BME280;59968;51.084;16.748;2023-06-14T01:43:12;100260.42;;;10.83;66.94
72096;BME280;59968;51.084;16.748;2023-06-14T01:45:42;100266.74;;;10.84;67.16
72096;BME280;59968;51.084;16.748;2023-06-14T01:48:13;100264.54;;;10.80;67.56
72096;BME280;59968;51.084;16.748;2023-06-14T01:50:45;100265.33;;;10.77;67.80
72096;BME280;59968;51.084;16.748;2023-06-14T01:53:14;100262.55;;;10.73;68.02
72096;BME280;59968;51.084;16.748;2023-06-14T02:00:23;100255.36;;;10.73;67.98
72096;BME280;59968;51.084;16.748;2023-06-14T02:02:58;100257.84;;;10.74;68.02
72096;BME280;59968;51.084;16.748;2023-06-14T02:05:27;100257.83;;;10.72;68.16
72096;BME280;59968;51.084;16.748;2023-06-14T02:07:56;100259.35;;;10.71;68.51
72096;BME280;59968;51.084;16.748;2023-06-14T02:10:28;100258.29;;;10.70;68.86
72096;BME280;59968;51.084;16.748;2023-06-14T02:13:07;100256.25;;;10.70;69.22
72096;BME280;59968;51.084;16.748;2023-06-14T02:15:40;100256.19;;;10.71;69.23
72096;BME280;59968;51.084;16.748;2023-06-14T02:18:13;100256.16;;;10.73;69.26
72096;BME280;59968;51.084;16.748;2023-06-14T02:20:42;100255.70;;;10.75;69.37
72096;BME280;59968;51.084;16.748;2023-06-14T02:23:12;100257.29;;;10.75;69.36
72096;BME280;59968;51.084;16.748;2023-06-14T02:25:46;100267.30;;;10.81;69.39
72096;BME280;59968;51.084;16.748;2023-06-14T02:28:15;100268.14;;;10.82;69.39
72096;BME280;59968;51.084;16.748;2023-06-14T02:30:48;100267.36;;;10.84;69.46
72096;BME280;59968;51.084;16.748;2023-06-14T02:33:20;100270.99;;;10.86;69.65
72096;BME280;59968;51.084;16.748;2023-06-14T02:36:02;100270.10;;;10.87;69.75
72096;BME280;59968;51.084;16.748;2023-06-14T02:38:55;100266.43;;;10.89;69.80
72096;BME280;59968;51.084;16.748;2023-06-14T02:41:28;100267.44;;;10.91;69.83
72096;BME280;59968;51.084;16.748;2023-06-14T02:43:57;100272.27;;;10.92;69.88
72096;BME280;59968;51.084;16.748;2023-06-14T02:46:32;100274.90;;;10.92;69.70
72096;BME280;59968;51.084;16.748;2023-06-14T02:49:00;100273.46;;;10.89;69.00
72096;BME280;59968;51.084;16.748;2023-06-14T02:51:32;100275.20;;;10.87;68.87
72096;BME280;59968;51.084;16.748;2023-06-14T02:54:08;100276.09;;;10.84;69.07
72096;BME280;59968;51.084;16.748;2023-06-14T03:01:18;100271.38;;;10.83;69.29
72096;BME280;59968;51.084;16.748;2023-06-14T03:10:57;100264.98;;;10.74;68.46
72096;BME280;59968;51.084;16.748;2023-06-14T03:13:29;100266.86;;;10.73;68.46
72096;BME280;59968;51.084;16.748;2023-06-14T03:20:38;100266.06;;;10.61;68.56
72096;BME280;59968;51.084;16.748;2023-06-14T03:23:10;100269.34;;;10.51;68.32
72096;BME280;59968;51.084;16.748;2023-06-14T03:25:41;100270.91;;;10.38;68.49
72096;BME280;59968;51.084;16.748;2023-06-14T03:28:15;100277.23;;;10.32;68.76
72096;BME280;59968;51.084;16.748;2023-06-14T03:30:44;100279.44;;;10.31;69.10
72096;BME280;59968;51.084;16.748;2023-06-14T03:37:56;100285.36;;;10.38;69.15
72096;BME280;59968;51.084;16.748;2023-06-14T03:40:31;100282.80;;;10.43;69.28
72096;BME280;59968;51.084;16.748;2023-06-14T03:43:03;100284.27;;;10.46;69.43
72096;BME280;59968;51.084;16.748;2023-06-14T03:45:34;100282.13;;;10.48;69.52
72096;BME280;59968;51.084;16.748;2023-06-14T03:48:09;100284.39;;;10.51;69.62
72096;BME280;59968;51.084;16.748;2023-06-14T03:55:04;100299.10;;;10.60;69.88
72096;BME280;59968;51.084;16.748;2023-06-14T03:57:39;100299.05;;;10.59;70.13
72096;BME280;59968;51.084;16.748;2023-06-14T04:00:15;100300.79;;;10.58;70.33
72096;BME280;59968;51.084;16.748;2023-06-14T04:02:47;100305.45;;;10.51;70.70
72096;BME280;59968;51.084;16.748;2023-06-14T04:05:19;100310.05;;;10.47;71.07
72096;BME280;59968;51.084;16.748;2023-06-14T04:07:50;100308.14;;;10.53;71.48
72096;BME280;59968;51.084;16.748;2023-06-14T04:10:19;100304.16;;;10.65;71.78
72096;BME280;59968;51.084;16.748;2023-06-14T04:12:59;100300.29;;;10.78;71.77
72096;BME280;59968;51.084;16.748;2023-06-14T04:15:28;100296.93;;;10.90;71.69
72096;BME280;59968;51.084;16.748;2023-06-14T04:18:02;100301.50;;;11.00;71.62
72096;BME280;59968;51.084;16.748;2023-06-14T04:20:31;100307.87;;;11.12;71.66
72096;BME280;59968;51.084;16.748;2023-06-14T04:23:17;100310.61;;;11.23;71.69
72096;BME280;59968;51.084;16.748;2023-06-14T04:25:50;100311.61;;;11.35;71.62
72096;BME280;59968;51.084;16.748;2023-06-14T04:28:19;100307.35;;;11.46;71.83
72096;BME280;59968;51.084;16.748;2023-06-14T04:35:10;100294.53;;;11.70;72.33
72096;BME280;59968;51.084;16.748;2023-06-14T04:37:43;100293.85;;;11.78;72.38
72096;BME280;59968;51.084;16.748;2023-06-14T04:40:15;100288.14;;;11.87;72.19
72096;BME280;59968;51.084;16.748;2023-06-14T04:42:46;100289.85;;;11.97;72.13
72096;BME280;59968;51.084;16.748;2023-06-14T04:45:18;100291.14;;;12.07;72.11
72096;BME280;59968;51.084;16.748;2023-06-14T04:47:47;100300.59;;;12.16;72.17
72096;BME280;59968;51.084;16.748;2023-06-14T04:50:16;100301.55;;;12.25;71.91
72096;BME280;59968;51.084;16.748;2023-06-14T04:52:46;100301.27;;;12.33;71.79
72096;BME280;59968;51.084;16.748;2023-06-14T04:55:16;100299.64;;;12.42;71.71
72096;BME280;59968;51.084;16.748;2023-06-14T04:57:46;100304.08;;;12.54;71.50
72096;BME280;59968;51.084;16.748;2023-06-14T05:00:15;100304.18;;;12.65;71.35
72096;BME280;59968;51.084;16.748;2023-06-14T05:02:44;100306.20;;;12.76;71.25
72096;BME280;59968;51.084;16.748;2023-06-14T05:05:16;100310.54;;;12.91;71.30
72096;BME280;59968;51.084;16.748;2023-06-14T05:07:46;100312.45;;;13.05;70.95
72096;BME280;59968;51.084;16.748;2023-06-14T05:10:14;100316.33;;;13.12;70.82
72096;BME280;59968;51.084;16.748;2023-06-14T05:12:43;100321.59;;;13.12;70.68
72096;BME280;59968;51.084;16.748;2023-06-14T05:15:15;100315.20;;;13.13;70.70
72096;BME280;59968;51.084;16.748;2023-06-14T05:17:46;100313.05;;;13.15;70.76
72096;BME280;59968;51.084;16.748;2023-06-14T05:20:24;100310.16;;;13.15;70.74
72096;BME280;59968;51.084;16.748;2023-06-14T05:22:55;100309.06;;;13.18;71.03
72096;BME280;59968;51.084;16.748;2023-06-14T05:25:25;100319.09;;;13.27;70.99
72096;BME280;59968;51.084;16.748;2023-06-14T05:27:54;100321.77;;;13.39;70.69
72096;BME280;59968;51.084;16.748;2023-06-14T05:30:23;100329.30;;;13.59;70.66
72096;BME280;59968;51.084;16.748;2023-06-14T05:32:52;100328.04;;;13.80;70.53
72096;BME280;59968;51.084;16.748;2023-06-14T05:35:21;100324.42;;;13.94;70.16
72096;BME280;59968;51.084;16.748;2023-06-14T05:37:52;100326.17;;;14.03;70.08
72096;BME280;59968;51.084;16.748;2023-06-14T05:40:23;100332.98;;;14.18;70.56
72096;BME280;59968;51.084;16.748;2023-06-14T05:42:51;100331.39;;;14.34;70.50
72096;BME280;59968;51.084;16.748;2023-06-14T05:45:20;100337.61;;;14.51;70.08
72096;BME280;59968;51.084;16.748;2023-06-14T05:47:49;100341.52;;;14.56;69.26
72096;BME280;59968;51.084;16.748;2023-06-14T05:50:18;100347.71;;;14.57;69.28
72096;BME280;59968;51.084;16.748;2023-06-14T05:52:47;100348.13;;;14.60;68.82
72096;BME280;59968;51.084;16.748;2023-06-14T05:55:16;100348.35;;;14.60;68.85
72096;BME280;59968;51.084;16.748;2023-06-14T05:57:46;100348.23;;;14.67;68.88
72096;BME280;59968;51.084;16.748;2023-06-14T06:00:16;100352.63;;;14.79;68.39
72096;BME280;59968;51.084;16.748;2023-06-14T06:02:46;100351.45;;;14.93;68.28
72096;BME280;59968;51.084;16.748;2023-06-14T06:05:16;100347.33;;;15.11;68.32
72096;BME280;59968;51.084;16.748;2023-06-14T06:07:46;100347.34;;;15.30;67.96
72096;BME280;59968;51.084;16.748;2023-06-14T06:10:14;100343.43;;;15.39;67.70
72096;BME280;59968;51.084;16.748;2023-06-14T06:12:44;100342.34;;;15.56;67.29
72096;BME280;59968;51.084;16.748;2023-06-14T06:15:12;100341.45;;;15.67;66.66
72096;BME280;59968;51.084;16.748;2023-06-14T06:17:42;100337.59;;;15.79;66.54
72096;BME280;59968;51.084;16.748;2023-06-14T06:20:23;100340.25;;;15.85;65.99
72096;BME280;59968;51.084;16.748;2023-06-14T06:22:58;100335.76;;;15.87;66.06
72096;BME280;59968;51.084;16.748;2023-06-14T06:25:28;100334.27;;;16.00;65.98
72096;BME280;59968;51.084;16.748;2023-06-14T06:27:57;100336.45;;;16.13;65.41
72096;BME280;59968;51.084;16.748;2023-06-14T06:30:26;100338.92;;;16.21;64.88
72096;BME280;59968;51.084;16.748;2023-06-14T06:32:55;100338.98;;;16.33;64.78
72096;BME280;59968;51.084;16.748;2023-06-14T06:35:27;100336.64;;;16.47;64.40
72096;BME280;59968;51.084;16.748;2023-06-14T06:37:55;100339.14;;;16.59;64.05
72096;BME280;59968;51.084;16.748;2023-06-14T06:40:24;100339.52;;;16.68;64.23
72096;BME280;59968;51.084;16.748;2023-06-14T06:42:53;100342.06;;;16.89;64.05
72096;BME280;59968;51.084;16.748;2023-06-14T06:45:22;100350.80;;;17.05;63.77
72096;BME280;59968;51.084;16.748;2023-06-14T06:47:52;100355.98;;;17.23;63.25
72096;BME280;59968;51.084;16.748;2023-06-14T06:50:21;100357.05;;;17.40;62.72
72096;BME280;59968;51.084;16.748;2023-06-14T06:52:53;100358.26;;;17.55;62.14
72096;BME280;59968;51.084;16.748;2023-06-14T06:55:22;100362.95;;;17.75;61.95
72096;BME280;59968;51.084;16.748;2023-06-14T06:57:51;100361.42;;;17.91;61.55
72096;BME280;59968;51.084;16.748;2023-06-14T07:00:23;100369.35;;;18.03;60.97
72096;BME280;59968;51.084;16.748;2023-06-14T07:02:56;100369.89;;;18.10;60.22
72096;BME280;59968;51.084;16.748;2023-06-14T07:05:27;100373.27;;;18.20;60.17
72096;BME280;59968;51.084;16.748;2023-06-14T07:07:56;100378.10;;;18.27;60.20
72096;BME280;59968;51.084;16.748;2023-06-14T07:10:25;100378.12;;;18.34;59.86
72096;BME280;59968;51.084;16.748;2023-06-14T07:12:54;100376.79;;;18.42;59.75
72096;BME280;59968;51.084;16.748;2023-06-14T07:15:24;100378.17;;;18.48;59.54
72096;BME280;59968;51.084;16.748;2023-06-14T07:17:53;100372.44;;;18.58;59.31
72096;BME280;59968;51.084;16.748;2023-06-14T07:20:22;100375.92;;;18.79;58.88
72096;BME280;59968;51.084;16.748;2023-06-14T07:22:53;100378.21;;;18.95;58.48
72096;BME280;59968;51.084;16.748;2023-06-14T07:25:22;100379.69;;;19.11;58.19
72096;BME280;59968;51.084;16.748;2023-06-14T07:27:51;100378.29;;;19.20;58.03
72096;BME280;59968;51.084;16.748;2023-06-14T07:30:20;100383.73;;;19.30;58.01
72096;BME280;59968;51.084;16.748;2023-06-14T07:32:50;100379.83;;;19.29;57.39
72096;BME280;59968;51.084;16.748;2023-06-14T07:35:19;100374.90;;;19.19;57.15
72096;BME280;59968;51.084;16.748;2023-06-14T07:37:48;100376.08;;;19.16;57.79
72096;BME280;59968;51.084;16.748;2023-06-14T07:40:18;100376.94;;;19.17;57.52
72096;BME280;59968;51.084;16.748;2023-06-14T07:42:46;100373.07;;;19.15;57.62
72096;BME280;59968;51.084;16.748;2023-06-14T07:45:15;100373.79;;;19.25;57.89
72096;BME280;59968;51.084;16.748;2023-06-14T07:47:44;100380.17;;;19.32;57.38
72096;BME280;59968;51.084;16.748;2023-06-14T07:50:13;100377.69;;;19.38;57.25
72096;BME280;59968;51.084;16.748;2023-06-14T07:52:42;100378.23;;;19.51;56.85
72096;BME280;59968;51.084;16.748;2023-06-14T07:55:10;100377.11;;;19.68;57.07
72096;BME280;59968;51.084;16.748;2023-06-14T07:57:39;100379.98;;;19.85;56.40
72096;BME280;59968;51.084;16.748;2023-06-14T08:00:08;100376.02;;;19.98;56.36
72096;BME280;59968;51.084;16.748;2023-06-14T08:02:39;100377.12;;;20.04;56.24
72096;BME280;59968;51.084;16.748;2023-06-14T08:05:10;100371.98;;;20.10;55.18
72096;BME280;59968;51.084;16.748;2023-06-14T08:07:39;100366.11;;;19.98;55.31
72096;BME280;59968;51.084;16.748;2023-06-14T08:10:09;100366.83;;;19.95;55.55
72096;BME280;59968;51.084;16.748;2023-06-14T08:12:38;100368.73;;;20.08;55.61
72096;BME280;59968;51.084;16.748;2023-06-14T08:15:07;100368.20;;;20.13;55.51
72096;BME280;59968;51.084;16.748;2023-06-14T08:17:45;100365.48;;;20.21;55.30
72096;BME280;59968;51.084;16.748;2023-06-14T08:20:13;100369.16;;;20.28;55.04
72096;BME280;59968;51.084;16.748;2023-06-14T08:22:45;100371.56;;;20.38;54.78
72096;BME280;59968;51.084;16.748;2023-06-14T08:25:16;100371.30;;;20.45;55.06
72096;BME280;59968;51.084;16.748;2023-06-14T08:27:45;100370.27;;;20.50;54.21
72096;BME280;59968;51.084;16.748;2023-06-14T08:30:14;100368.70;;;20.56;53.98
72096;BME280;59968;51.084;16.748;2023-06-14T08:32:43;100366.23;;;20.64;53.84
72096;BME280;59968;51.084;16.748;2023-06-14T08:35:13;100364.39;;;20.56;53.89
72096;BME280;59968;51.084;16.748;2023-06-14T08:37:42;100368.54;;;20.55;53.87
72096;BME280;59968;51.084;16.748;2023-06-14T08:40:22;100365.48;;;20.57;53.61
72096;BME280;59968;51.084;16.748;2023-06-14T08:42:54;100364.24;;;20.54;54.05
72096;BME280;59968;51.084;16.748;2023-06-14T08:45:24;100361.17;;;20.44;54.14
72096;BME280;59968;51.084;16.748;2023-06-14T08:47:59;100363.70;;;20.38;54.61
72096;BME280;59968;51.084;16.748;2023-06-14T08:50:29;100365.88;;;20.40;54.18
72096;BME280;59968;51.084;16.748;2023-06-14T08:53:02;100367.58;;;20.42;54.20
72096;BME280;59968;51.084;16.748;2023-06-14T08:55:33;100364.73;;;20.48;54.22
72096;BME280;59968;51.084;16.748;2023-06-14T08:58:05;100361.70;;;20.57;53.81
72096;BME280;59968;51.084;16.748;2023-06-14T09:00:34;100358.96;;;20.66;53.34
72096;BME280;59968;51.084;16.748;2023-06-14T09:03:03;100353.52;;;20.63;52.85
72096;BME280;59968;51.084;16.748;2023-06-14T09:05:32;100353.27;;;20.65;52.41
72096;BME280;59968;51.084;16.748;2023-06-14T09:08:00;100351.16;;;20.74;52.71
72096;BME280;59968;51.084;16.748;2023-06-14T09:10:34;100353.77;;;20.95;52.52
72096;BME280;59968;51.084;16.748;2023-06-14T09:13:06;100355.66;;;21.10;52.45
72096;BME280;59968;51.084;16.748;2023-06-14T09:15:35;100358.80;;;21.13;52.17
72096;BME280;59968;51.084;16.748;2023-06-14T09:18:05;100362.16;;;21.20;51.71
72096;BME280;59968;51.084;16.748;2023-06-14T09:20:35;100359.55;;;21.27;51.09
72096;BME280;59968;51.084;16.748;2023-06-14T09:23:04;100362.07;;;21.34;51.73
72096;BME280;59968;51.084;16.748;2023-06-14T09:25:45;100362.09;;;21.40;51.88
72096;BME280;59968;51.084;16.748;2023-06-14T09:28:15;100363.98;;;21.41;51.60
72096;BME280;59968;51.084;16.748;2023-06-14T09:30:43;100366.71;;;21.37;51.13
72096;BME280;59968;51.084;16.748;2023-06-14T09:33:17;100363.34;;;21.35;51.33
72096;BME280;59968;51.084;16.748;2023-06-14T09:40:26;100363.25;;;21.28;51.07
72096;BME280;59968;51.084;16.748;2023-06-14T09:42:55;100358.99;;;21.33;51.72
72096;BME280;59968;51.084;16.748;2023-06-14T09:45:26;100357.02;;;21.42;51.64
72096;BME280;59968;51.084;16.748;2023-06-14T09:47:58;100352.21;;;21.53;51.54
72096;BME280;59968;51.084;16.748;2023-06-14T09:50:30;100352.81;;;21.61;50.55
72096;BME280;59968;51.084;16.748;2023-06-14T09:53:03;100353.05;;;21.64;51.01
72096;BME280;59968;51.084;16.748;2023-06-14T09:55:36;100349.34;;;21.60;50.87
72096;BME280;59968;51.084;16.748;2023-06-14T09:58:07;100349.13;;;21.63;50.46
72096;BME280;59968;51.084;16.748;2023-06-14T10:00:36;100347.86;;;21.67;50.32
72096;BME280;59968;51.084;16.748;2023-06-14T10:03:14;100352.55;;;21.62;49.91
72096;BME280;59968;51.084;16.748;2023-06-14T10:05:47;100352.66;;;21.49;50.10
72096;BME280;59968;51.084;16.748;2023-06-14T10:08:19;100355.63;;;21.35;50.35
72096;BME280;59968;51.084;16.748;2023-06-14T10:10:48;100355.98;;;21.31;50.71
72096;BME280;59968;51.084;16.748;2023-06-14T10:13:18;100362.67;;;21.32;50.62
72096;BME280;59968;51.084;16.748;2023-06-14T10:16:07;100359.34;;;21.30;50.58
72096;BME280;59968;51.084;16.748;2023-06-14T10:25:57;100361.92;;;21.24;51.06
72096;BME280;59968;51.084;16.748;2023-06-14T10:28:26;100363.46;;;21.16;51.78
72096;BME280;59968;51.084;16.748;2023-06-14T10:31:06;100361.48;;;21.13;52.51
72096;BME280;59968;51.084;16.748;2023-06-14T10:33:48;100359.64;;;21.14;52.39
72096;BME280;59968;51.084;16.748;2023-06-14T10:36:25;100359.33;;;21.14;52.39
72096;BME280;59968;51.084;16.748;2023-06-14T10:39:17;100363.41;;;21.17;52.83
72096;BME280;59968;51.084;16.748;2023-06-14T10:41:55;100357.05;;;21.21;52.85
72096;BME280;59968;51.084;16.748;2023-06-14T10:44:31;100361.31;;;21.18;51.87
72096;BME280;59968;51.084;16.748;2023-06-14T10:47:23;100363.30;;;21.17;51.89
72096;BME280;59968;51.084;16.748;2023-06-14T10:50:14;100364.86;;;21.21;51.89
72096;BME280;59968;51.084;16.748;2023-06-14T10:52:48;100359.46;;;21.18;51.70
72096;BME280;59968;51.084;16.748;2023-06-14T10:55:24;100354.17;;;21.14;51.77
72096;BME280;59968;51.084;16.748;2023-06-14T10:58:01;100355.08;;;21.17;52.29
72096;BME280;59968;51.084;16.748;2023-06-14T11:00:45;100355.23;;;21.28;52.67
72096;BME280;59968;51.084;16.748;2023-06-14T11:03:53;100350.55;;;21.48;52.84
72096;BME280;59968;51.084;16.748;2023-06-14T11:06:56;100349.03;;;21.73;52.48
72096;BME280;59968;51.084;16.748;2023-06-14T11:09:57;100348.86;;;21.98;51.62
72096;BME280;59968;51.084;16.748;2023-06-14T11:12:34;100340.80;;;22.20;51.60
72096;BME280;59968;51.084;16.748;2023-06-14T11:15:06;100335.35;;;22.43;50.50
72096;BME280;59968;51.084;16.748;2023-06-14T11:17:37;100336.29;;;22.62;49.71
72096;BME280;59968;51.084;16.748;2023-06-14T11:20:16;100330.83;;;22.78;49.04
72096;BME280;59968;51.084;16.748;2023-06-14T11:22:51;100326.16;;;23.01;48.30
72096;BME280;59968;51.084;16.748;2023-06-14T11:25:21;100321.92;;;23.13;47.68
72096;BME280;59968;51.084;16.748;2023-06-14T11:27:50;100321.62;;;23.13;47.45
72096;BME280;59968;51.084;16.748;2023-06-14T11:30:22;100325.44;;;23.11;47.57
72096;BME280;59968;51.084;16.748;2023-06-14T11:32:53;100328.90;;;23.00;47.29
72096;BME280;59968;51.084;16.748;2023-06-14T11:35:27;100329.48;;;22.86;47.19
72096;BME280;59968;51.084;16.748;2023-06-14T11:37:58;100331.79;;;22.66;48.20
72096;BME280;59968;51.084;16.748;2023-06-14T11:40:27;100332.22;;;22.47;49.27
72096;BME280;59968;51.084;16.748;2023-06-14T11:43:09;100330.32;;;22.28;50.17
72096;BME280;59968;51.084;16.748;2023-06-14T11:50:23;100328.00;;;22.08;52.47
72096;BME280;59968;51.084;16.748;2023-06-14T11:52:58;100323.09;;;22.11;52.92
72096;BME280;59968;51.084;16.748;2023-06-14T11:55:47;100319.56;;;22.17;53.19
72096;BME280;59968;51.084;16.748;2023-06-14T11:58:18;100315.95;;;22.27;52.91
72096;BME280;59968;51.084;16.748;2023-06-14T12:00:52;100309.77;;;22.28;52.69
72096;BME280;59968;51.084;16.748;2023-06-14T12:03:30;100311.52;;;22.29;53.83
72096;BME280;59968;51.084;16.748;2023-06-14T12:10:42;100309.77;;;22.24;53.52
72096;BME280;59968;51.084;16.748;2023-06-14T12:13:24;100310.83;;;22.30;53.16
72096;BME280;59968;51.084;16.748;2023-06-14T12:20:29;100303.30;;;22.45;53.02
72096;BME280;59968;51.084;16.748;2023-06-14T12:23:03;100300.56;;;22.43;52.45
72096;BME280;59968;51.084;16.748;2023-06-14T12:25:40;100304.27;;;22.40;52.60
72096;BME280;59968;51.084;16.748;2023-06-14T12:28:21;100308.66;;;22.35;52.38
72096;BME280;59968;51.084;16.748;2023-06-14T12:30:58;100317.69;;;22.23;53.13
72096;BME280;59968;51.084;16.748;2023-06-14T12:33:42;100330.05;;;21.98;54.84
72096;BME280;59968;51.084;16.748;2023-06-14T12:36:27;100325.64;;;21.65;55.04
72096;BME280;59968;51.084;16.748;2023-06-14T12:39:11;100321.86;;;21.33;56.31
72096;BME280;59968;51.084;16.748;2023-06-14T12:41:51;100318.63;;;21.09;54.52
72096;BME280;59968;51.084;16.748;2023-06-14T12:44:32;100314.58;;;20.91;55.76
72096;BME280;59968;51.084;16.748;2023-06-14T12:47:09;100318.11;;;20.82;57.51
72096;BME280;59968;51.084;16.748;2023-06-14T12:49:42;100316.19;;;20.78;58.99
72096;BME280;59968;51.084;16.748;2023-06-14T12:52:16;100312.80;;;20.74;59.69
72096;BME280;59968;51.084;16.748;2023-06-14T12:55:05;100313.45;;;20.69;60.11
72096;BME280;59968;51.084;16.748;2023-06-14T12:57:45;100310.21;;;20.68;60.26
72096;BME280;59968;51.084;16.748;2023-06-14T13:00:25;100313.00;;;20.64;60.67
72096;BME280;59968;51.084;16.748;2023-06-14T13:03:04;100310.45;;;20.62;61.01
72096;BME280;59968;51.084;16.748;2023-06-14T13:05:35;100303.65;;;20.61;61.47
72096;BME280;59968;51.084;16.748;2023-06-14T13:08:11;100303.77;;;20.63;61.69
72096;BME280;59968;51.084;16.748;2023-06-14T13:10:47;100300.86;;;20.62;61.61
72096;BME280;59968;51.084;16.748;2023-06-14T13:13:30;100295.40;;;20.57;60.50
72096;BME280;59968;51.084;16.748;2023-06-14T13:16:05;100296.52;;;20.49;60.79
72096;BME280;59968;51.084;16.748;2023-06-14T13:18:39;100303.20;;;20.41;61.25
72096;BME280;59968;51.084;16.748;2023-06-14T13:21:12;100302.38;;;20.30;61.79
72096;BME280;59968;51.084;16.748;2023-06-14T13:23:46;100306.21;;;20.28;61.99
72096;BME280;59968;51.084;16.748;2023-06-14T13:26:21;100307.78;;;20.28;61.86
72096;BME280;59968;51.084;16.748;2023-06-14T13:28:57;100304.26;;;20.35;62.02
72096;BME280;59968;51.084;16.748;2023-06-14T13:31:34;100298.53;;;20.46;61.03
72096;BME280;59968;51.084;16.748;2023-06-14T13:37:44;100293.96;;;20.47;62.22
72096;BME280;59968;51.084;16.748;2023-06-14T13:40:29;100298.32;;;20.44;61.87
72096;BME280;59968;51.084;16.748;2023-06-14T13:43:13;100301.23;;;20.46;61.95
72096;BME280;59968;51.084;16.748;2023-06-14T13:45:43;100299.64;;;20.52;62.08
72096;BME280;59968;51.084;16.748;2023-06-14T13:48:17;100298.73;;;20.59;63.02
72096;BME280;59968;51.084;16.748;2023-06-14T13:50:59;100298.05;;;20.70;62.45
72096;BME280;59968;51.084;16.748;2023-06-14T13:53:36;100298.73;;;20.76;61.13
72096;BME280;59968;51.084;16.748;2023-06-14T13:56:12;100294.90;;;20.72;60.69
72096;BME280;59968;51.084;16.748;2023-06-14T13:58:45;100294.15;;;20.78;60.47
72096;BME280;59968;51.084;16.748;2023-06-14T14:01:17;100292.35;;;20.85;60.62
72096;BME280;59968;51.084;16.748;2023-06-14T14:03:49;100296.45;;;20.94;59.86
72096;BME280;59968;51.084;16.748;2023-06-14T14:06:21;100293.89;;;21.02;59.72
72096;BME280;59968;51.084;16.748;2023-06-14T14:09:12;100301.08;;;21.08;59.69
72096;BME280;59968;51.084;16.748;2023-06-14T14:11:42;100297.65;;;21.10;59.02
72096;BME280;59968;51.084;16.748;2023-06-14T14:14:12;100297.41;;;21.13;59.05
72096;BME280;59968;51.084;16.748;2023-06-14T14:16:41;100295.98;;;21.14;58.87
72096;BME280;59968;51.084;16.748;2023-06-14T14:19:10;100298.38;;;21.17;58.92
72096;BME280;59968;51.084;16.748;2023-06-14T14:21:39;100296.63;;;21.17;58.23
72096;BME280;59968;51.084;16.748;2023-06-14T14:24:08;100296.55;;;21.12;57.99
72096;BME280;59968;51.084;16.748;2023-06-14T14:26:39;100299.23;;;21.08;58.30
72096;BME280;59968;51.084;16.748;2023-06-14T14:29:09;100302.50;;;21.06;58.07
72096;BME280;59968;51.084;16.748;2023-06-14T14:31:40;100298.85;;;21.02;58.07
72096;BME280;59968;51.084;16.748;2023-06-14T14:34:12;100297.67;;;20.99;58.20
72096;BME280;59968;51.084;16.748;2023-06-14T14:36:42;100298.15;;;20.99;58.50
72096;BME280;59968;51.084;16.748;2023-06-14T14:39:15;100299.54;;;21.01;58.46
72096;BME280;59968;51.084;16.748;2023-06-14T14:41:47;100295.73;;;20.99;57.61
72096;BME280;59968;51.084;16.748;2023-06-14T14:44:17;100298.84;;;20.97;57.81